Time,TemperatureF,DewpointF,PressureIn,WindDirection,WindDirectionDegrees,WindSpeedMPH,WindSpeedGustMPH,Humidity,HourlyPrecipIn,Conditions,Clouds,dailyrainin,SoftwareType,DateUTC
2013-04-05 00:05:00,40.6,40.1,29.76,SSW,202,0.0,-999.0,98,-99.99,,,0.00,Acu-Link.com,2013-04-05 04:05:00,
2013-04-05 00:20:00,40.6,40.1,29.75,East,90,0.0,-999.0,98,-99.99,,,0.00,Acu-Link.com,2013-04-05 04:20:00,
2013-04-05 00:36:00,40.6,40.1,29.76,WNW,292,0.0,-999.0,98,-99.99,,,0.00,Acu-Link.com,2013-04-05 04:36:00,
2013-04-05 01:21:00,40.6,40.1,29.77,SW,225,0.0,-999.0,98,-99.99,,,0.00,Acu-Link.com,2013-04-05 05:21:00,
2013-04-05 01:37:00,40.6,40.1,29.77,SSE,157,0.0,-999.0,98,-99.99,,,0.00,Acu-Link.com,2013-04-05 05:37:00,
2013-04-05 01:52:00,40.6,40.1,29.77,North,0,0.0,-999.0,98,-99.99,,,0.00,Acu-Link.com,2013-04-05 05:52:00,
2013-04-05 02:07:00,40.8,40.3,29.78,NNW,337,0.0,-999.0,98,-99.99,,,0.00,Acu-Link.com,2013-04-05 06:07:00,
2013-04-05 02:23:00,40.6,40.1,29.77,NNW,337,0.0,-999.0,98,-99.99,,,0.00,Acu-Link.com,2013-04-05 06:23:00,
2013-04-05 02:38:00,40.6,40.1,29.77,NNW,337,0.0,-999.0,98,-99.99,,,0.00,Acu-Link.com,2013-04-05 06:38:00,
2013-04-05 02:53:00,40.6,40.1,29.78,North,0,0.0,-999.0,98,-99.99,,,0.00,Acu-Link.com,2013-04-05 06:53:00,
2013-04-05 03:08:00,40.8,40.3,29.78,NE,45,0.0,-999.0,98,-99.99,,,0.01,Acu-Link.com,2013-04-05 07:08:00,
2013-04-05 03:39:00,41.0,40.5,29.78,ENE,67,0.0,-999.0,98,-99.99,,,0.01,Acu-Link.com,2013-04-05 07:39:00,
2013-04-05 03:54:00,41.0,40.5,29.79,East,90,2.2,-999.0,98,-99.99,,,0.01,Acu-Link.com,2013-04-05 07:54:00,
2013-04-05 04:10:00,41.0,40.5,29.79,NNE,22,0.0,-999.0,98,-99.99,,,0.01,Acu-Link.com,2013-04-05 08:10:00,
2013-04-05 04:25:00,41.0,40.5,29.79,NE,45,0.0,-999.0,98,-99.99,,,0.01,Acu-Link.com,2013-04-05 08:25:00,
2013-04-05 04:41:00,41.0,40.5,29.79,NE,45,0.0,-999.0,98,-99.99,,,0.01,Acu-Link.com,2013-04-05 08:41:00,
2013-04-05 04:56:00,40.8,40.3,29.78,NE,45,0.0,-999.0,98,-99.99,,,0.01,Acu-Link.com,2013-04-05 08:56:00,
2013-04-05 05:11:00,40.8,40.3,29.79,ENE,67,0.0,-999.0,98,-99.99,,,0.01,Acu-Link.com,2013-04-05 09:11:00,
2013-04-05 05:41:00,40.6,40.1,29.79,ENE,67,0.0,-999.0,98,-99.99,,,0.01,Acu-Link.com,2013-04-05 09:41:00,
2013-04-05 05:57:00,40.1,39.6,29.79,ENE,67,0.0,-999.0,98,-99.99,,,0.01,Acu-Link.com,2013-04-05 09:57:00,
2013-04-05 06:27:00,39.0,38.5,29.80,NW,315,1.7,-999.0,98,-99.99,,,0.01,Acu-Link.com,2013-04-05 10:27:00,
2013-04-05 06:42:00,38.8,38.3,29.80,NNE,22,0.0,-999.0,98,-99.99,,,0.01,Acu-Link.com,2013-04-05 10:42:00,
2013-04-05 06:57:00,38.8,38.3,29.80,NE,45,0.0,-999.0,98,-99.99,,,0.01,Acu-Link.com,2013-04-05 10:57:00,
2013-04-05 07:13:00,38.8,38.3,29.80,NE,45,0.0,-999.0,98,-99.99,,,0.01,Acu-Link.com,2013-04-05 11:13:00,
2013-04-05 07:28:00,39.0,38.5,29.81,NNE,22,0.0,-999.0,98,-99.99,,,0.01,Acu-Link.com,2013-04-05 11:28:00,
2013-04-05 07:59:00,40.1,39.6,29.83,NE,45,0.0,-999.0,98,-99.99,,,0.01,Acu-Link.com,2013-04-05 11:59:00,
2013-04-05 08:29:00,41.5,41.0,29.84,SSE,157,0.0,-999.0,98,-99.99,,,0.01,Acu-Link.com,2013-04-05 12:29:00,
2013-04-05 08:45:00,42.6,42.1,29.85,SE,135,0.0,-999.0,98,-99.99,,,0.01,Acu-Link.com,2013-04-05 12:45:00,
2013-04-05 09:00:00,43.3,42.8,29.86,ESE,112,0.0,-999.0,98,-99.99,,,0.01,Acu-Link.com,2013-04-05 13:00:00,
2013-04-05 09:15:00,43.5,43.0,29.85,South,180,1.1,-999.0,98,-99.99,,,0.01,Acu-Link.com,2013-04-05 13:15:00,
2013-04-05 09:30:00,44.6,44.1,29.85,NE,45,1.1,-999.0,98,-99.99,,,0.01,Acu-Link.com,2013-04-05 13:30:00,
2013-04-05 10:01:00,46.4,43.3,29.85,SE,135,0.0,-999.0,89,-99.99,,,0.01,Acu-Link.com,2013-04-05 14:01:00,
2013-04-05 10:16:00,49.8,44.8,29.85,SSE,157,1.7,-999.0,83,-99.99,,,0.01,Acu-Link.com,2013-04-05 14:16:00,
2013-04-05 10:31:00,51.6,45.0,29.85,East,90,4.2,-999.0,78,-99.99,,,0.01,Acu-Link.com,2013-04-05 14:31:00,
2013-04-05 11:02:00,50.5,44.6,29.86,NE,45,3.2,-999.0,80,-99.99,,,0.01,Acu-Link.com,2013-04-05 15:02:00,
2013-04-05 11:17:00,50.4,44.5,29.87,NE,45,1.7,-999.0,80,-99.99,,,0.01,Acu-Link.com,2013-04-05 15:17:00,
2013-04-05 11:33:00,52.2,44.5,29.86,South,180,4.7,-999.0,75,-99.99,,,0.01,Acu-Link.com,2013-04-05 15:33:00,
2013-04-05 11:48:00,52.9,44.8,29.86,ENE,67,5.3,-999.0,74,-99.99,,,0.01,Acu-Link.com,2013-04-05 15:48:00,
2013-04-05 12:03:00,55.8,45.4,29.85,SSE,157,2.7,-999.0,68,-99.99,,,0.01,Acu-Link.com,2013-04-05 16:03:00,
2013-04-05 12:18:00,61.9,46.0,29.85,NE,45,4.2,-999.0,56,-99.99,,,0.01,Acu-Link.com,2013-04-05 16:18:00,
2013-04-05 12:33:00,59.9,43.2,29.85,NE,45,2.2,-999.0,54,-99.99,,,0.01,Acu-Link.com,2013-04-05 16:33:00,
2013-04-05 13:19:00,64.9,41.9,29.83,ESE,112,2.7,-999.0,43,-99.99,,,0.01,Acu-Link.com,2013-04-05 17:19:00,
2013-04-05 13:49:00,65.3,40.4,29.82,West,270,2.2,-999.0,40,-99.99,,,0.01,Acu-Link.com,2013-04-05 17:49:00,
2013-04-05 14:05:00,67.3,38.7,29.82,NW,315,6.3,-999.0,35,-99.99,,,0.01,Acu-Link.com,2013-04-05 18:05:00,
2013-04-05 14:20:00,67.3,40.1,29.81,East,90,4.2,-999.0,37,-99.99,,,0.01,Acu-Link.com,2013-04-05 18:20:00,
2013-04-05 14:35:00,66.9,39.1,29.81,SSE,157,3.7,-999.0,36,-99.99,,,0.01,Acu-Link.com,2013-04-05 18:35:00,
2013-04-05 14:50:00,70.2,39.0,29.81,NNW,337,3.2,-999.0,32,-99.99,,,0.01,Acu-Link.com,2013-04-05 18:50:00,
2013-04-05 15:06:00,68.9,39.4,29.80,South,180,2.7,-999.0,34,-99.99,,,0.01,Acu-Link.com,2013-04-05 19:06:00,
2013-04-05 15:21:00,71.4,36.6,29.80,ESE,112,2.7,-999.0,28,-99.99,,,0.01,Acu-Link.com,2013-04-05 19:21:00,
2013-04-05 15:36:00,70.0,36.3,29.79,NNE,22,7.3,-999.0,29,-99.99,,,0.01,Acu-Link.com,2013-04-05 19:36:00,
2013-04-05 15:51:00,70.0,37.1,29.79,SW,225,2.2,-999.0,30,-99.99,,,0.01,Acu-Link.com,2013-04-05 19:51:00,
2013-04-05 16:06:00,67.5,35.0,29.79,NE,45,6.8,-999.0,30,-99.99,,,0.01,Acu-Link.com,2013-04-05 20:06:00,
2013-04-05 16:22:00,70.5,33.0,29.78,West,270,4.2,-999.0,25,-99.99,,,0.01,Acu-Link.com,2013-04-05 20:22:00,
2013-04-05 16:37:00,68.7,34.3,29.78,North,0,2.7,-999.0,28,-99.99,,,0.01,Acu-Link.com,2013-04-05 20:37:00,
2013-04-05 16:52:00,71.2,32.6,29.78,WNW,292,3.2,-999.0,24,-99.99,,,0.01,Acu-Link.com,2013-04-05 20:52:00,
2013-04-05 17:08:00,71.2,26.8,29.78,NNE,22,4.2,-999.0,19,-99.99,,,0.01,Acu-Link.com,2013-04-05 21:08:00,
2013-04-05 17:23:00,70.7,28.9,29.78,East,90,5.3,-999.0,21,-99.99,,,0.01,Acu-Link.com,2013-04-05 21:23:00,
2013-04-05 17:38:00,70.3,29.7,29.78,NE,45,3.7,-999.0,22,-99.99,,,0.01,Acu-Link.com,2013-04-05 21:38:00,
2013-04-05 18:09:00,68.2,30.0,29.78,NNW,337,5.8,-999.0,24,-99.99,,,0.01,Acu-Link.com,2013-04-05 22:09:00,
2013-04-05 18:24:00,66.9,30.9,29.78,South,180,4.2,-999.0,26,-99.99,,,0.01,Acu-Link.com,2013-04-05 22:24:00,
2013-04-05 18:39:00,67.6,32.4,29.79,ESE,112,2.7,-999.0,27,-99.99,,,0.01,Acu-Link.com,2013-04-05 22:39:00,
2013-04-05 18:54:00,69.6,31.2,29.79,NNE,22,3.2,-999.0,24,-99.99,,,0.01,Acu-Link.com,2013-04-05 22:54:00,
2013-04-05 19:09:00,66.4,32.3,29.79,South,180,1.7,-999.0,28,-99.99,,,0.01,Acu-Link.com,2013-04-05 23:09:00,
2013-04-05 19:24:00,64.0,33.6,29.79,SSE,157,1.7,-999.0,32,-99.99,,,0.01,Acu-Link.com,2013-04-05 23:24:00,
2013-04-05 19:40:00,62.1,34.1,29.79,South,180,1.7,-999.0,35,-99.99,,,0.01,Acu-Link.com,2013-04-05 23:40:00,
2013-04-05 19:55:00,60.6,34.9,29.80,WSW,247,0.0,-999.0,38,-99.99,,,0.01,Acu-Link.com,2013-04-05 23:55:00,
2013-04-05 20:10:00,57.6,39.6,29.81,SSW,202,0.0,-999.0,51,-99.99,,,0.01,Acu-Link.com,2013-04-06 00:10:00,
2013-04-05 20:26:00,56.5,39.6,29.82,South,180,0.0,-999.0,53,-99.99,,,0.01,Acu-Link.com,2013-04-06 00:26:00,
2013-04-05 20:41:00,54.5,40.5,29.82,South,180,0.0,-999.0,59,-99.99,,,0.01,Acu-Link.com,2013-04-06 00:41:00,
2013-04-05 21:42:00,48.6,41.0,29.86,NW,315,0.0,-999.0,75,-99.99,,,0.01,Acu-Link.com,2013-04-06 01:42:00,
2013-04-05 21:57:00,47.7,40.5,29.86,East,90,0.0,-999.0,76,-99.99,,,0.01,Acu-Link.com,2013-04-06 01:57:00,
2013-04-05 22:13:00,46.8,39.0,29.87,ESE,112,0.0,-999.0,74,-99.99,,,0.01,Acu-Link.com,2013-04-06 02:13:00,
2013-04-05 22:28:00,45.9,38.8,29.86,NNE,22,0.0,-999.0,76,-99.99,,,0.01,Acu-Link.com,2013-04-06 02:28:00,
2013-04-05 22:43:00,45.0,39.2,29.87,SE,135,0.0,-999.0,80,-99.99,,,0.01,Acu-Link.com,2013-04-06 02:43:00,
2013-04-05 22:59:00,44.4,38.6,29.87,SE,135,0.0,-999.0,80,-99.99,,,0.01,Acu-Link.com,2013-04-06 02:59:00,
2013-04-05 23:14:00,43.7,37.6,29.88,SE,135,0.0,-999.0,79,-99.99,,,0.01,Acu-Link.com,2013-04-06 03:14:00,
2013-04-05 23:29:00,43.0,37.9,29.87,East,90,0.0,-999.0,82,-99.99,,,0.01,Acu-Link.com,2013-04-06 03:29:00,
2013-04-05 23:45:00,42.3,37.8,29.88,WNW,292,0.0,-999.0,84,-99.99,,,0.01,Acu-Link.com,2013-04-06 03:45:00,